createdAt,value
2018-04-14T00:00:30.311Z,12.20
2018-04-14T00:02:58.518Z,12.30
2018-04-14T00:05:26.711Z,12.30
2018-04-14T00:07:55.764Z,12.30
2018-04-14T00:10:24.682Z,12.30
2018-04-14T00:12:52.917Z,12.40
2018-04-14T00:15:21.156Z,12.50
2018-04-14T00:17:49.390Z,12.50
2018-04-14T00:20:17.561Z,12.20
2018-04-14T00:22:46.492Z,12.20
2018-04-14T00:25:15.538Z,12.10
2018-04-14T00:27:44.470Z,12.20
2018-04-14T00:30:12.592Z,12.10
2018-04-14T00:32:41.517Z,11.90
2018-04-14T00:35:09.740Z,11.80
2018-04-14T00:37:38.130Z,11.90
2018-04-14T00:40:07.134Z,12.10
2018-04-14T00:42:36.021Z,12.20
2018-04-14T00:45:04.932Z,12.10
2018-04-14T00:47:33.076Z,11.90
2018-04-14T00:50:01.339Z,11.80
2018-04-14T00:52:29.573Z,11.80
2018-04-14T00:54:57.737Z,12.00
2018-04-14T00:57:25.886Z,11.90
2018-04-14T00:59:54.857Z,11.90
2018-04-14T01:02:23.869Z,11.90
2018-04-14T01:04:52.794Z,11.80
2018-04-14T01:07:20.919Z,11.70
2018-04-14T01:09:49.090Z,11.90
2018-04-14T01:12:18.010Z,12.10
2018-04-14T01:14:46.157Z,11.90
2018-04-14T01:17:15.064Z,12.00
2018-04-14T01:19:44.002Z,12.00
2018-04-14T01:22:12.154Z,12.00
2018-04-14T01:24:40.374Z,11.80
2018-04-14T01:27:08.521Z,11.80
2018-04-14T01:29:36.674Z,11.80
2018-04-14T01:32:04.828Z,11.90
2018-04-14T01:34:32.974Z,11.90
2018-04-14T01:37:01.894Z,11.80
2018-04-14T01:39:30.094Z,12.00
2018-04-14T01:41:58.299Z,11.90
2018-04-14T01:44:26.428Z,11.90
2018-04-14T01:46:54.629Z,11.80
2018-04-14T01:49:22.777Z,11.70
2018-04-14T01:51:50.965Z,11.90
2018-04-14T01:54:19.119Z,11.80
2018-04-14T01:56:47.273Z,11.70
2018-04-14T01:59:15.397Z,11.80
2018-04-14T02:01:43.558Z,11.80
2018-04-14T02:04:11.676Z,11.70
2018-04-14T02:06:40.610Z,11.70
2018-04-14T02:09:08.829Z,11.60
2018-04-14T02:11:37.775Z,11.70
2018-04-14T02:14:05.913Z,11.50
2018-04-14T02:16:34.037Z,11.60
2018-04-14T02:19:02.169Z,11.50
2018-04-14T02:21:30.289Z,11.60
2018-04-14T02:23:58.424Z,11.70
2018-04-14T02:26:26.712Z,11.70
2018-04-14T02:28:54.838Z,11.70
2018-04-14T02:31:23.774Z,11.80
2018-04-14T02:33:52.109Z,11.70
2018-04-14T02:36:20.237Z,11.90
2018-04-14T02:38:48.442Z,12.00
2018-04-14T02:41:17.371Z,12.00
2018-04-14T02:43:45.550Z,11.80
2018-04-14T02:46:13.704Z,11.80
2018-04-14T02:48:41.833Z,11.80
2018-04-14T02:51:10.007Z,11.90
2018-04-14T02:53:38.128Z,11.90
2018-04-14T02:56:06.406Z,12.10
2018-04-14T02:58:34.582Z,11.90
2018-04-14T03:01:02.748Z,11.80
2018-04-14T03:03:30.929Z,12.00
2018-04-14T03:05:59.198Z,11.80
2018-04-14T03:08:27.321Z,12.20
2018-04-14T03:10:55.470Z,11.90
2018-04-14T03:13:23.605Z,11.70
2018-04-14T03:15:51.730Z,11.90
2018-04-14T03:18:19.854Z,12.10
2018-04-14T03:20:48.003Z,12.00
2018-04-14T03:23:16.967Z,12.10
2018-04-14T03:25:45.089Z,12.10
2018-04-14T03:28:13.208Z,12.00
2018-04-14T03:30:41.351Z,12.20
2018-04-14T03:33:09.479Z,12.30
2018-04-14T03:35:38.390Z,12.60
2018-04-14T03:38:06.563Z,12.50
2018-04-14T03:40:34.710Z,12.50
2018-04-14T03:43:03.766Z,12.20
2018-04-14T03:45:31.922Z,12.40
2018-04-14T03:48:00.080Z,12.20
2018-04-14T03:50:28.380Z,11.80
2018-04-14T03:52:56.597Z,11.60
2018-04-14T03:55:25.505Z,11.60
2018-04-14T03:57:53.681Z,11.50
2018-04-14T04:00:22.021Z,11.50
2018-04-14T04:02:50.170Z,11.60
2018-04-14T04:05:18.424Z,11.40
2018-04-14T04:07:46.598Z,11.30
2018-04-14T04:10:14.856Z,11.30
2018-04-14T04:12:43.107Z,11.40
2018-04-14T04:15:12.026Z,11.30
2018-04-14T04:17:41.184Z,11.30
2018-04-14T04:20:22.231Z,11.40
2018-04-14T04:26:00.309Z,11.20
2018-04-14T04:28:29.241Z,11.10
2018-04-14T04:30:57.526Z,11.10
2018-04-14T04:33:25.798Z,11.00
2018-04-14T04:35:54.016Z,11.00
2018-04-14T04:38:23.065Z,11.00
2018-04-14T04:40:51.195Z,11.10
2018-04-14T04:43:19.439Z,11.10
2018-04-14T04:45:48.388Z,11.00
2018-04-14T04:48:16.546Z,11.00
2018-04-14T04:50:44.766Z,11.00
2018-04-14T04:53:12.943Z,10.90
2018-04-14T04:55:41.226Z,10.90
2018-04-14T04:58:10.141Z,11.00
2018-04-14T05:00:38.493Z,11.00
2018-04-14T05:03:07.417Z,11.00
2018-04-14T05:05:35.573Z,11.10
2018-04-14T05:08:04.465Z,11.10
2018-04-14T05:10:33.390Z,11.10
2018-04-14T05:13:01.609Z,11.20
2018-04-14T05:15:29.762Z,11.10
2018-04-14T05:17:57.986Z,11.20
2018-04-14T05:20:26.190Z,11.40
2018-04-14T05:22:54.317Z,11.30
2018-04-14T05:25:23.235Z,11.30
2018-04-14T05:27:51.470Z,11.20
2018-04-14T05:30:20.427Z,11.20
2018-04-14T05:32:48.578Z,11.20
2018-04-14T05:35:16.734Z,11.10
2018-04-14T05:37:45.726Z,11.20
2018-04-14T05:40:13.969Z,11.00
2018-04-14T05:42:42.156Z,11.10
2018-04-14T05:45:11.092Z,11.10
2018-04-14T05:47:39.233Z,11.10
2018-04-14T05:50:07.368Z,11.10
2018-04-14T05:52:35.528Z,11.10
2018-04-14T05:55:03.785Z,11.20
2018-04-14T05:57:31.993Z,11.20
2018-04-14T06:00:00.218Z,11.20
2018-04-14T06:02:28.426Z,11.30
2018-04-14T06:04:56.574Z,11.20
2018-04-14T06:07:24.752Z,11.30
2018-04-14T06:09:52.902Z,11.40
2018-04-14T06:12:21.125Z,11.40
2018-04-14T06:14:49.290Z,11.50
2018-04-14T06:17:17.447Z,11.50
2018-04-14T06:19:45.608Z,11.50
2018-04-14T06:22:13.780Z,11.60
2018-04-14T06:24:42.658Z,11.70
2018-04-14T06:27:10.832Z,11.60
2018-04-14T06:29:39.022Z,11.40
2018-04-14T06:32:07.148Z,11.30
2018-04-14T06:34:36.045Z,11.30
2018-04-14T06:37:04.952Z,11.40
2018-04-14T06:39:33.103Z,11.40
2018-04-14T06:42:02.032Z,11.50
2018-04-14T06:44:30.178Z,11.70
2018-04-14T06:46:58.334Z,11.80
2018-04-14T06:49:27.248Z,11.90
2018-04-14T06:51:55.368Z,12.00
2018-04-14T06:54:23.510Z,12.20
2018-04-14T06:56:53.253Z,12.10
2018-04-14T06:59:21.388Z,12.20
2018-04-14T07:01:52.281Z,12.10
2018-04-14T07:04:21.205Z,12.00
2018-04-14T07:06:49.374Z,12.30
2018-04-14T07:09:17.520Z,12.30
2018-04-14T07:11:47.225Z,12.20
2018-04-14T07:14:15.344Z,12.20
2018-04-14T07:16:43.473Z,12.30
2018-04-14T07:19:12.426Z,12.30
2018-04-14T07:21:40.641Z,12.20
2018-04-14T07:24:09.579Z,12.30
2018-04-14T07:26:37.737Z,12.60
2018-04-14T07:29:05.894Z,12.80
2018-04-14T07:31:34.027Z,12.80
2018-04-14T07:34:02.210Z,12.90
2018-04-14T07:36:30.353Z,13.00
2018-04-14T07:38:58.490Z,12.90
2018-04-14T07:41:26.855Z,12.90
2018-04-14T07:43:55.035Z,13.30
2018-04-14T07:46:23.214Z,13.40
2018-04-14T07:48:51.391Z,13.50
2018-04-14T07:51:19.595Z,13.70
2018-04-14T07:53:47.761Z,13.90
2018-04-14T07:56:15.888Z,13.70
2018-04-14T07:58:44.822Z,14.30
2018-04-14T08:01:13.021Z,14.40
2018-04-14T08:03:41.182Z,14.10
2018-04-14T08:06:09.377Z,13.90
2018-04-14T08:08:38.308Z,13.50
2018-04-14T08:11:06.485Z,13.60
2018-04-14T08:13:34.673Z,13.50
2018-04-14T08:16:02.881Z,13.50
2018-04-14T08:18:31.092Z,13.60
2018-04-14T08:20:59.284Z,13.90
2018-04-14T08:23:28.077Z,14.40
2018-04-14T08:25:56.505Z,14.70
2018-04-14T08:28:25.538Z,14.50
2018-04-14T08:30:53.830Z,14.20
2018-04-14T08:33:22.131Z,14.40
2018-04-14T08:35:50.625Z,14.70
2018-04-14T08:38:19.151Z,15.10
2018-04-14T08:40:47.492Z,15.30
2018-04-14T08:43:16.536Z,15.80
2018-04-14T08:45:45.090Z,15.20
2018-04-14T08:48:13.628Z,15.10
2018-04-14T08:50:42.769Z,15.30
2018-04-14T08:53:11.149Z,15.20
2018-04-14T08:55:39.669Z,15.30
2018-04-14T08:58:08.314Z,15.30
2018-04-14T09:00:36.844Z,15.40
2018-04-14T09:03:05.111Z,15.30
2018-04-14T09:05:33.592Z,15.20
2018-04-14T09:08:02.668Z,15.50
2018-04-14T09:10:30.851Z,15.60
2018-04-14T09:12:59.425Z,16.00
2018-04-14T09:15:27.687Z,15.80
2018-04-14T09:17:56.253Z,15.80
2018-04-14T09:20:24.650Z,15.80
2018-04-14T09:22:52.994Z,15.90
2018-04-14T09:25:21.214Z,15.60
2018-04-14T09:27:49.503Z,15.30
2018-04-14T09:30:18.172Z,15.80
2018-04-14T09:32:47.392Z,15.60
2018-04-14T09:35:15.649Z,15.30
2018-04-14T09:37:44.030Z,15.70
2018-04-14T09:40:12.291Z,16.10
2018-04-14T09:42:40.566Z,16.30
2018-04-14T09:45:09.113Z,16.20
2018-04-14T09:47:37.655Z,16.40
2018-04-14T09:50:07.336Z,16.60
2018-04-14T09:52:35.630Z,16.90
2018-04-14T09:55:04.292Z,17.00
2018-04-14T09:57:32.693Z,17.00
2018-04-14T10:00:01.255Z,17.00
2018-04-14T10:05:27.612Z,16.70
2018-04-14T10:07:56.229Z,16.90
2018-04-14T10:10:24.786Z,17.20
2018-04-14T10:12:53.311Z,17.00
2018-04-14T10:15:21.648Z,17.30
2018-04-14T10:17:50.048Z,17.20
2018-04-14T10:20:18.810Z,17.10
2018-04-14T10:22:47.555Z,17.00
2018-04-14T10:25:16.013Z,16.90
2018-04-14T10:27:44.525Z,17.00
2018-04-14T10:30:13.052Z,17.60
2018-04-14T10:32:41.312Z,17.80
2018-04-14T10:35:09.788Z,17.80
2018-04-14T10:37:38.215Z,17.70
2018-04-14T10:40:07.229Z,17.70
2018-04-14T10:42:36.292Z,18.00
2018-04-14T10:45:04.957Z,18.20
2018-04-14T10:47:33.731Z,18.90
2018-04-14T10:50:02.395Z,19.70
2018-04-14T10:52:31.873Z,19.90
2018-04-14T10:55:00.953Z,19.50
2018-04-14T10:57:31.274Z,19.20
2018-04-14T11:00:02.718Z,18.30
2018-04-14T11:02:36.397Z,18.10
2018-04-14T11:06:09.608Z,19.00
2018-04-14T11:08:38.521Z,19.40
2018-04-14T11:11:06.677Z,19.70
2018-04-14T11:13:35.596Z,20.40
2018-04-14T11:16:03.721Z,20.20
2018-04-14T11:18:31.837Z,20.20
2018-04-14T11:20:59.977Z,19.80
2018-04-14T11:23:28.962Z,19.60
2018-04-14T11:25:57.904Z,18.90
2018-04-14T11:28:26.020Z,18.90
2018-04-14T11:30:54.164Z,19.10
2018-04-14T11:33:22.301Z,19.20
2018-04-14T11:35:51.226Z,20.20
2018-04-14T11:38:19.466Z,21.00
2018-04-14T11:40:47.589Z,20.80
2018-04-14T11:43:15.917Z,20.90
2018-04-14T11:45:44.065Z,20.70
2018-04-14T11:48:12.984Z,20.70
2018-04-14T11:50:41.138Z,21.10
2018-04-14T11:53:09.268Z,20.40
2018-04-14T11:55:37.465Z,20.10
2018-04-14T11:58:06.382Z,19.70
2018-04-14T12:00:34.526Z,19.30
2018-04-14T12:03:02.701Z,18.90
2018-04-14T12:05:31.618Z,18.80
2018-04-14T12:07:59.739Z,18.90
2018-04-14T12:10:27.936Z,19.00
2018-04-14T12:12:56.827Z,18.60
2018-04-14T12:15:24.945Z,18.60
2018-04-14T12:17:53.084Z,18.60
2018-04-14T12:20:22.006Z,18.50
2018-04-14T12:22:50.189Z,18.70
2018-04-14T12:25:18.341Z,18.10
2018-04-14T12:27:46.528Z,17.40
2018-04-14T12:30:14.721Z,16.90
2018-04-14T12:32:42.866Z,16.00
2018-04-14T12:35:11.004Z,15.40
2018-04-14T12:37:39.925Z,14.90
2018-04-14T12:40:08.103Z,14.50
2018-04-14T12:42:36.282Z,14.40
2018-04-14T12:45:04.506Z,14.70
2018-04-14T12:47:33.408Z,14.50
2018-04-14T12:50:02.323Z,14.60
2018-04-14T12:52:30.485Z,14.30
2018-04-14T12:54:58.670Z,14.50
2018-04-14T12:57:26.885Z,14.60
2018-04-14T12:59:55.057Z,14.50
2018-04-14T13:02:23.236Z,14.90
2018-04-14T13:04:51.364Z,15.70
2018-04-14T13:07:19.548Z,16.10
2018-04-14T13:09:47.688Z,17.10
2018-04-14T13:12:16.627Z,16.90
2018-04-14T13:14:44.857Z,16.50
2018-04-14T13:17:13.078Z,16.40
2018-04-14T13:19:41.208Z,16.60
2018-04-14T13:22:09.389Z,16.50
2018-04-14T13:24:37.581Z,17.60
2018-04-14T13:27:06.719Z,18.10
2018-04-14T13:29:34.849Z,18.40
2018-04-14T13:32:03.061Z,18.30
2018-04-14T13:34:31.217Z,17.10
2018-04-14T13:36:59.370Z,16.60
2018-04-14T13:39:27.509Z,16.90
2018-04-14T13:41:55.725Z,20.00
2018-04-14T13:44:23.897Z,24.60
2018-04-14T13:46:52.066Z,23.70
2018-04-14T13:49:20.284Z,25.20
2018-04-14T13:51:49.239Z,24.70
2018-04-14T13:54:17.578Z,24.30
2018-04-14T13:56:45.771Z,28.20
2018-04-14T13:59:13.985Z,33.00
2018-04-14T14:01:42.184Z,34.10
2018-04-14T14:04:10.349Z,37.00
2018-04-14T14:06:39.346Z,40.20
2018-04-14T14:09:08.462Z,40.80
2018-04-14T14:11:36.701Z,36.20
2018-04-14T14:14:05.709Z,37.50
2018-04-14T14:16:33.880Z,37.30
2018-04-14T14:19:02.808Z,39.10
2018-04-14T14:21:30.980Z,39.90
2018-04-14T14:23:59.226Z,39.80
2018-04-14T14:26:28.171Z,37.80
2018-04-14T14:28:56.363Z,36.60
2018-04-14T14:31:24.557Z,35.20
2018-04-14T14:33:52.782Z,37.80
2018-04-14T14:36:20.949Z,36.80
2018-04-14T14:38:49.166Z,36.80
2018-04-14T14:41:18.179Z,36.60
2018-04-14T14:43:46.329Z,32.90
2018-04-14T14:46:15.285Z,33.50
2018-04-14T14:48:43.501Z,34.10
2018-04-14T14:51:11.728Z,32.00
2018-04-14T14:53:39.985Z,29.20
2018-04-14T14:56:08.188Z,26.10
2018-04-14T14:58:36.365Z,25.60
2018-04-14T15:04:02.201Z,22.70
2018-04-14T15:06:30.567Z,23.40
2018-04-14T15:11:56.427Z,24.60
2018-04-14T15:14:25.649Z,23.50
2018-04-14T15:16:53.802Z,23.30
2018-04-14T15:19:23.095Z,23.80
2018-04-14T15:21:51.568Z,26.00
2018-04-14T15:24:20.884Z,28.50
2018-04-14T15:26:49.944Z,30.90
2018-04-14T15:29:18.808Z,32.70
2018-04-14T15:31:47.783Z,33.50
2018-04-14T15:34:16.129Z,32.60
2018-04-14T15:36:45.706Z,33.30
2018-04-14T15:39:15.056Z,33.30
2018-04-14T15:41:45.369Z,31.90
2018-04-14T15:44:16.494Z,32.20
2018-04-14T15:46:45.792Z,32.00
2018-04-14T15:49:14.682Z,33.30
2018-04-14T15:51:43.566Z,31.10
2018-04-14T15:54:12.866Z,29.30
2018-04-14T15:56:43.967Z,26.60
2018-04-14T15:59:13.367Z,25.90
2018-04-14T16:01:52.545Z,27.30
2018-04-14T16:04:21.794Z,25.20
2018-04-14T16:06:52.192Z,24.40
2018-04-14T16:09:23.283Z,23.50
2018-04-14T16:11:54.594Z,23.90
2018-04-14T16:14:27.166Z,23.70
2018-04-14T16:16:55.611Z,25.10
2018-04-14T16:19:25.213Z,25.50
2018-04-14T16:21:55.824Z,25.50
2018-04-14T16:24:30.190Z,24.70
2018-04-14T16:32:55.860Z,25.80
2018-04-14T16:35:24.000Z,26.30
2018-04-14T16:37:52.913Z,27.10
2018-04-14T16:40:21.062Z,27.40
2018-04-14T16:42:49.973Z,27.70
2018-04-14T16:45:18.166Z,26.90
2018-04-14T16:47:46.331Z,26.80
2018-04-14T16:50:14.485Z,26.20
2018-04-14T16:52:42.652Z,25.00
2018-04-14T16:55:11.533Z,24.50
2018-04-14T16:57:40.424Z,23.90
2018-04-14T17:00:09.324Z,24.20
2018-04-14T17:02:38.237Z,24.10
2018-04-14T17:05:06.353Z,24.00
2018-04-14T17:07:34.468Z,24.00
2018-04-14T17:10:02.636Z,23.30
2018-04-14T17:12:30.756Z,23.10
2018-04-14T17:14:58.923Z,23.00
2018-04-14T17:17:27.078Z,22.40
2018-04-14T17:19:55.205Z,21.40
2018-04-14T17:22:24.121Z,21.00
2018-04-14T17:24:52.240Z,20.60
2018-04-14T17:27:20.362Z,20.90
2018-04-14T17:29:48.496Z,20.80
2018-04-14T17:32:16.651Z,20.80
2018-04-14T17:34:44.826Z,20.40
2018-04-14T17:37:12.973Z,20.00
2018-04-14T17:39:41.093Z,19.70
2018-04-14T17:42:09.266Z,19.80
2018-04-14T17:44:37.422Z,19.70
2018-04-14T17:47:05.582Z,19.40
2018-04-14T17:49:33.753Z,19.30
2018-04-14T17:52:01.969Z,19.30
2018-04-14T17:54:30.861Z,19.10
2018-04-14T17:56:59.745Z,18.70
2018-04-14T17:59:28.646Z,18.60
2018-04-14T18:01:57.558Z,18.40
2018-04-14T18:04:25.710Z,18.40
2018-04-14T18:06:54.592Z,18.10
2018-04-14T18:09:23.501Z,18.10
2018-04-14T18:11:51.646Z,18.10
2018-04-14T18:14:20.571Z,18.10
2018-04-14T18:16:48.717Z,17.70
2018-04-14T18:19:17.650Z,17.80
2018-04-14T18:21:45.804Z,17.70
2018-04-14T18:24:13.922Z,17.80
2018-04-14T18:26:42.038Z,17.70
2018-04-14T18:29:10.965Z,17.70
2018-04-14T18:31:39.092Z,17.60
2018-04-14T18:34:07.993Z,17.50
2018-04-14T18:36:36.108Z,17.40
2018-04-14T18:39:04.246Z,17.30
2018-04-14T18:41:32.413Z,16.90
2018-04-14T18:44:01.215Z,16.50
2018-04-14T18:46:29.356Z,16.50
2018-04-14T18:48:58.253Z,16.60
2018-04-14T18:51:27.291Z,16.50
2018-04-14T18:53:55.414Z,16.60
2018-04-14T18:56:24.369Z,16.60
2018-04-14T18:58:52.509Z,16.40
2018-04-14T19:01:20.660Z,16.40
2018-04-14T19:03:48.808Z,16.40
2018-04-14T19:06:17.732Z,16.40
2018-04-14T19:08:45.903Z,16.30
2018-04-14T19:11:14.024Z,16.10
2018-04-14T19:13:42.197Z,16.10
2018-04-14T19:16:10.413Z,16.10
2018-04-14T19:18:38.626Z,16.10
2018-04-14T19:21:06.802Z,15.90
2018-04-14T19:23:35.018Z,15.80
2018-04-14T19:26:03.929Z,15.60
2018-04-14T19:28:32.075Z,15.70
2018-04-14T19:31:00.992Z,15.70
2018-04-14T19:33:29.138Z,15.60
2018-04-14T19:35:58.066Z,15.60
2018-04-14T19:38:26.235Z,15.60
2018-04-14T19:40:54.377Z,15.30
2018-04-14T19:43:23.334Z,15.50
2018-04-14T19:45:51.448Z,15.50
2018-04-14T19:48:19.635Z,15.30
2018-04-14T19:50:47.827Z,15.30
2018-04-14T19:53:16.002Z,15.20
2018-04-14T19:55:44.129Z,15.10
2018-04-14T19:58:13.012Z,15.10
2018-04-14T20:00:41.181Z,15.20
2018-04-14T20:03:09.300Z,15.20
2018-04-14T20:05:37.443Z,14.90
2018-04-14T20:08:06.383Z,15.00
2018-04-14T20:10:34.509Z,15.00
2018-04-14T20:13:03.463Z,14.90
2018-04-14T20:15:31.600Z,14.70
2018-04-14T20:17:59.745Z,14.70
2018-04-14T20:20:27.894Z,14.70
2018-04-14T20:22:56.032Z,14.70
2018-04-14T20:25:24.152Z,14.70
2018-04-14T20:27:53.086Z,14.50
2018-04-14T20:30:21.257Z,14.20
2018-04-14T20:32:49.384Z,14.40
2018-04-14T20:35:18.317Z,14.20
2018-04-14T20:37:46.445Z,14.30
2018-04-14T20:40:15.385Z,14.30
2018-04-14T20:42:43.532Z,14.50
2018-04-14T20:45:11.677Z,14.60
2018-04-14T20:47:40.611Z,14.40
2018-04-14T20:50:08.752Z,14.30
2018-04-14T20:52:37.690Z,14.50
2018-04-14T20:55:05.850Z,14.50
2018-04-14T20:57:34.026Z,14.50
2018-04-14T21:00:02.153Z,14.40
2018-04-14T21:02:31.076Z,14.40
2018-04-14T21:04:59.193Z,14.20
2018-04-14T21:07:27.342Z,14.40
2018-04-14T21:09:55.526Z,14.20
2018-04-14T21:12:23.681Z,14.30
2018-04-14T21:14:51.837Z,14.30
2018-04-14T21:17:19.985Z,14.40
2018-04-14T21:19:48.927Z,14.20
2018-04-14T21:22:17.097Z,14.10
2018-04-14T21:24:45.278Z,14.10
2018-04-14T21:27:13.429Z,14.10
2018-04-14T21:29:41.606Z,14.00
2018-04-14T21:32:09.782Z,13.60
2018-04-14T21:34:37.916Z,13.90
2018-04-14T21:37:06.824Z,13.90
2018-04-14T21:39:34.940Z,14.10
2018-04-14T21:42:03.073Z,14.10
2018-04-14T21:44:31.209Z,13.90
2018-04-14T21:47:00.154Z,13.70
2018-04-14T21:49:28.329Z,13.90
2018-04-14T21:51:56.487Z,13.80
2018-04-14T21:54:24.665Z,13.90
2018-04-14T21:56:52.789Z,13.70
2018-04-14T21:59:21.700Z,13.90
2018-04-14T22:01:49.887Z,14.00
2018-04-14T22:04:18.031Z,13.90
2018-04-14T22:06:46.924Z,14.00
2018-04-14T22:09:16.066Z,13.90
2018-04-14T22:11:44.205Z,13.70
2018-04-14T22:14:24.315Z,13.90
2018-04-14T22:16:52.436Z,13.80
2018-04-14T22:19:20.609Z,13.70
2018-04-14T22:21:48.762Z,13.70
2018-04-14T22:24:17.683Z,13.60
2018-04-14T22:26:45.797Z,13.80
2018-04-14T22:29:13.937Z,13.80
2018-04-14T22:31:42.052Z,13.60
2018-04-14T22:34:10.182Z,13.70
2018-04-14T22:36:38.322Z,13.70
2018-04-14T22:39:06.472Z,13.30
2018-04-14T22:41:35.439Z,13.30
2018-04-14T22:44:03.587Z,13.30
2018-04-14T22:46:31.751Z,13.30
2018-04-14T22:48:59.957Z,13.50
2018-04-14T22:51:28.085Z,13.40
2018-04-14T22:53:56.206Z,13.30
2018-04-14T22:56:24.358Z,13.30
2018-04-14T22:58:52.537Z,13.50
2018-04-14T23:01:20.691Z,13.40
2018-04-14T23:03:48.846Z,13.50
2018-04-14T23:06:17.029Z,13.40
2018-04-14T23:08:45.156Z,13.40
2018-04-14T23:11:13.297Z,13.40
2018-04-14T23:13:41.479Z,13.40
2018-04-14T23:16:09.642Z,13.40
2018-04-14T23:18:37.798Z,13.20
2018-04-14T23:21:05.953Z,13.20
2018-04-14T23:23:34.082Z,13.30
2018-04-14T23:26:02.214Z,13.10
2018-04-14T23:28:30.397Z,12.90
2018-04-14T23:30:58.525Z,12.90
2018-04-14T23:33:27.817Z,13.10
2018-04-14T23:35:56.726Z,13.20
2018-04-14T23:38:24.906Z,13.00
2018-04-14T23:40:53.042Z,13.20
2018-04-14T23:43:21.188Z,13.20
2018-04-14T23:45:49.312Z,13.00
2018-04-14T23:48:17.541Z,12.90
2018-04-14T23:50:45.664Z,13.00
2018-04-14T23:53:13.818Z,13.00
2018-04-14T23:55:42.736Z,12.90
2018-04-14T23:58:10.861Z,12.90
